Aeroporto :
LOGIN :

Iscrizione | Disclaimer

   EN    FR    IT 

 










Sommario :    VFR   VFR Marginale   IFR   IFR Intensivo   IFR Molto Intensivo
Visibilità : 
Base nubi : 
>= 8 km
>= 3000ft
5 / 8 km
1000 / 3000 ft
1500m / 5 km
500 / 1000 ft
800 / 1500m
200 / 500 ft
< 800m
< 200 ft
Simboli :   Temporali  Nebbia  Neve Forte  Precipitazioni Forti  Vento > 20 kt
SIGMETs :   Varie  Temporali  Ghiacco  Turbolenza  Onda orograficha  Ceneri Vulcaniche






- Altitudine del aeroporto : 49 ft
- Codice IATA : SEN


EGMC - Southend

ULTIMO METAR :
  • 221950Z 26020G30KT 9999 SCT033 11/04 Q1020

METARs OBSOLETI :
  • 221920Z 25015G25KT 9999 FEW040 11/04 Q1020
  • 221850Z 25020G30KT 9999 FEW037 11/04 Q1019
  • 221820Z 25020G31KT 9999 FEW041 11/04 Q1019
  • 221750Z 25019KT 9999 FEW046 11/05 Q1019
  • 221720Z 25020G33KT 9999 FEW040 11/05 Q1019

TAF TAF EGMC
Valido dal 22 a 18 ore il 23 a 03 ore UTC


221651Z 2218/2303 25015G25KT 9999 SCT030
PROB30
TEMPO 2218/2303 8000 -RA BKN014



MetMap, La meteo Aeronautica in un colpo d'occhio ! - Copyright ORBIFLY Dicembre 2007 - Disclaimer

ORBIFLY MET'MAP TEAM :

Programmazione e sviluppo : Alexandra Zaïnal
Concezione : Baudouin d'Aumeries
Aiuto per la programmazione : Marc-Olivier Méhu
Supporto tecnico e logistico : Manuel Goepfert
Aiuto per la traduzione : Arnaldo La Scala

Contatto : metmap@orbifly.com




FONTI E CREDITI :

   NOAA